KLVL

Lawrenceville / Brunswick Municipal Airport

Lawrenceville, Virginia, USA
METAR KLVL 210435Z AUTO 00000KT 10SM CLR 06/01 A3014 RMK AO1 T00550007
Observed Flight Rules
Jan-21 @ 04:35 UTC (15 minutes ago) Visual Flight Rules
Wind Visibility Clouds
Calm 10 miles
  • Clear skies
Temperatures Readings
Current 6°C / 43°F
Dewpoint 1°C / 34°F
Humidity 71%
Altimeter 30.14" Hg
Pressure 1021 hPa
Elevation 100
METAR KLVL 210435Z AUTO 00000KT 10SM CLR 06/01 A3014 RMK AO1 T00550007
Observed Flight Rules
Jan-21 @ 04:35 UTC
(15 minutes ago)
VFR
Wind Visibility
Calm 10 miles
Clouds
  • Clear skies
Temperature Dewpoint
6°C / 43°F 1°C / 34°F
Humidity Altimeter Pressure
71% 30.14" Hg 1021 hPa